Time;durP1;ratioP1;P1;durP2;ratioP2;P2;SDS_P1;SDS_P2;PMS_P1;PMS_P2;Temp;Humidity;BMP_temperature;BMP_pressure;BME280_temperature;BME280_humidity;BME280_pressure;Samples;Min_cycle;Max_cycle;Signal;HPM_P1;HPM_P2
2024/01/29 00:02:23;;;;;;;5.65;4.53;;;5.60;99.90;;;;;;5094037;28;20047;-32
2024/01/29 00:04:48;;;;;;;4.78;3.97;;;5.60;99.90;;;;;;5091809;28;20037;-32
2024/01/29 00:07:14;;;;;;;4.90;3.95;;;5.50;99.90;;;;;;5092793;28;20040;-32
2024/01/29 00:09:41;;;;;;;4.95;4.22;;;5.40;99.90;;;;;;5097052;28;20048;-32
2024/01/29 00:12:07;;;;;;;5.63;4.20;;;5.40;99.90;;;;;;5101959;28;20051;-32
2024/01/29 00:14:32;;;;;;;5.35;4.40;;;5.40;99.90;;;;;;5076901;28;20054;-32
2024/01/29 00:17:00;;;;;;;5.45;4.30;;;5.40;99.90;;;;;;5095505;28;20082;-32
2024/01/29 00:19:26;;;;;;;7.13;4.75;;;5.40;99.90;;;;;;5095421;28;20400;-32
2024/01/29 00:21:51;;;;;;;5.70;4.45;;;5.30;99.90;;;;;;5094569;28;20106;-32
2024/01/29 00:24:17;;;;;;;5.82;4.38;;;5.30;99.90;;;;;;5077157;28;20044;-32
2024/01/29 00:26:43;;;;;;;5.22;4.40;;;5.20;99.90;;;;;;5079904;28;20044;-32
2024/01/29 00:29:09;;;;;;;6.70;4.38;;;5.20;99.90;;;;;;5100490;28;20036;-32
2024/01/29 00:31:35;;;;;;;5.00;4.35;;;5.20;99.90;;;;;;5094619;28;20043;-32
2024/01/29 00:34:00;;;;;;;7.45;4.50;;;5.20;99.90;;;;;;5095135;28;20044;-32
2024/01/29 00:36:28;;;;;;;5.78;4.38;;;5.10;99.90;;;;;;5094387;28;20079;-32
2024/01/29 00:38:54;;;;;;;4.63;4.22;;;5.10;99.90;;;;;;5094974;28;20406;-32
2024/01/29 00:41:19;;;;;;;5.13;4.22;;;5.00;99.90;;;;;;5069663;28;20040;-32
2024/01/29 00:43:45;;;;;;;4.72;4.22;;;5.00;99.90;;;;;;5076448;28;20159;-32
2024/01/29 00:46:11;;;;;;;5.82;4.40;;;5.00;99.90;;;;;;5090076;28;20047;-32
2024/01/29 00:48:37;;;;;;;4.93;3.70;;;4.90;99.90;;;;;;5066440;28;20044;-32
2024/01/29 00:51:03;;;;;;;6.25;4.50;;;4.90;99.90;;;;;;5076146;28;20047;-32
2024/01/29 00:53:29;;;;;;;7.20;4.43;;;4.90;99.90;;;;;;5074983;28;20420;-32
2024/01/29 00:55:55;;;;;;;5.55;4.60;;;4.80;99.90;;;;;;5095000;28;20111;-31
2024/01/29 00:58:21;;;;;;;5.63;4.57;;;4.80;99.90;;;;;;5087371;28;20585;-31
2024/01/29 01:00:48;;;;;;;6.50;4.60;;;4.80;99.90;;;;;;5093208;28;20510;-31
2024/01/29 01:03:14;;;;;;;6.47;4.72;;;4.80;99.90;;;;;;5096006;28;20044;-31
2024/01/29 01:05:40;;;;;;;4.43;4.00;;;4.90;99.90;;;;;;5087442;28;20154;-31
2024/01/29 01:08:06;;;;;;;5.05;4.60;;;4.80;99.90;;;;;;5096932;28;20065;-31
2024/01/29 01:10:32;;;;;;;6.28;4.60;;;4.80;99.90;;;;;;5095358;28;20479;-31
2024/01/29 01:12:59;;;;;;;6.30;4.45;;;4.70;99.90;;;;;;5094691;28;20047;-32
2024/01/29 01:15:25;;;;;;;4.47;3.95;;;4.80;99.90;;;;;;5096649;28;20553;-32
2024/01/29 01:17:51;;;;;;;7.53;5.00;;;4.80;99.90;;;;;;5093852;28;20113;-33
2024/01/29 01:20:16;;;;;;;5.88;4.25;;;4.80;99.90;;;;;;5077001;28;20047;-33
2024/01/29 01:22:42;;;;;;;5.50;4.32;;;4.80;99.90;;;;;;5094127;28;20044;-32
2024/01/29 01:25:08;;;;;;;6.80;4.85;;;4.80;99.90;;;;;;5094240;28;20047;-31
2024/01/29 01:27:34;;;;;;;6.10;4.65;;;4.70;99.90;;;;;;5089421;28;20097;-31
2024/01/29 01:29:59;;;;;;;6.95;4.72;;;4.70;99.90;;;;;;5094896;28;20032;-31
2024/01/29 01:32:25;;;;;;;6.60;4.38;;;4.70;99.90;;;;;;5094092;28;20089;-31
2024/01/29 01:34:51;;;;;;;7.38;4.88;;;4.70;99.90;;;;;;5104727;28;20062;-31
2024/01/29 01:37:17;;;;;;;5.10;4.63;;;4.60;99.90;;;;;;5107275;28;20051;-31
2024/01/29 01:39:42;;;;;;;6.82;4.75;;;4.60;99.90;;;;;;5098470;28;20043;-31
2024/01/29 01:42:09;;;;;;;8.38;5.15;;;4.60;99.90;;;;;;5093799;28;20542;-31
2024/01/29 01:44:35;;;;;;;8.80;4.78;;;4.50;99.90;;;;;;5074769;28;20040;-32
2024/01/29 01:47:01;;;;;;;5.80;4.85;;;4.50;99.90;;;;;;5093523;28;20043;-31
2024/01/29 01:49:29;;;;;;;6.10;4.85;;;4.50;99.90;;;;;;5077399;28;20039;-31
2024/01/29 01:51:55;;;;;;;6.07;5.00;;;4.50;99.90;;;;;;5093245;28;20403;-31
2024/01/29 01:54:21;;;;;;;5.97;4.80;;;4.50;99.90;;;;;;5095753;28;20044;-31
2024/01/29 01:56:48;;;;;;;6.65;5.20;;;4.50;99.90;;;;;;5094207;28;20454;-31
2024/01/29 01:59:14;;;;;;;4.93;4.25;;;4.50;99.90;;;;;;5086473;28;20047;-31
2024/01/29 02:01:40;;;;;;;6.05;4.78;;;4.40;99.90;;;;;;5089651;28;20032;-31
2024/01/29 02:04:07;;;;;;;7.00;5.22;;;4.40;99.90;;;;;;5087135;28;20111;-31
2024/01/29 02:06:32;;;;;;;5.97;4.70;;;4.40;99.90;;;;;;5100874;28;20090;-31
2024/01/29 02:09:00;;;;;;;7.85;4.70;;;4.40;99.90;;;;;;5094203;28;20031;-33
2024/01/29 02:11:25;;;;;;;5.28;4.78;;;4.40;99.90;;;;;;5093975;28;20036;-31
2024/01/29 02:13:51;;;;;;;5.82;4.63;;;4.40;99.90;;;;;;5071467;28;20032;-31
2024/01/29 02:16:17;;;;;;;6.35;5.20;;;4.40;99.90;;;;;;5085996;28;20035;-33
2024/01/29 02:18:43;;;;;;;5.53;5.03;;;4.30;99.90;;;;;;5089673;28;20032;-32
2024/01/29 02:21:09;;;;;;;5.05;4.47;;;4.30;99.90;;;;;;5079952;28;20048;-32
2024/01/29 02:23:35;;;;;;;5.68;4.90;;;4.20;99.90;;;;;;5098659;28;20039;-31
2024/01/29 02:26:01;;;;;;;5.57;5.00;;;4.20;99.90;;;;;;5092610;28;20143;-31
2024/01/29 02:28:27;;;;;;;8.00;4.30;;;4.20;99.90;;;;;;5099123;28;20082;-31
2024/01/29 02:30:53;;;;;;;7.55;4.93;;;4.20;99.90;;;;;;5092784;28;20040;-31
2024/01/29 02:33:19;;;;;;;6.28;5.05;;;4.20;99.90;;;;;;5117833;22;20055;-29
2024/01/29 02:35:48;;;;;;;6.40;5.40;;;4.10;99.90;;;;;;5108966;28;20050;-29
2024/01/29 02:38:14;;;;;;;5.72;4.72;;;4.10;99.90;;;;;;5116120;27;20511;-29
2024/01/29 02:40:40;;;;;;;6.20;5.20;;;4.10;99.90;;;;;;5103092;27;20035;-28
2024/01/29 02:43:05;;;;;;;7.97;5.70;;;4.10;99.90;;;;;;5112967;28;20035;-28
2024/01/29 02:45:31;;;;;;;6.50;4.90;;;4.20;99.90;;;;;;5112891;28;20123;-28
2024/01/29 02:47:57;;;;;;;6.13;4.85;;;4.10;99.90;;;;;;5106156;28;20043;-28
2024/01/29 02:50:25;;;;;;;6.72;5.13;;;4.10;99.90;;;;;;5085795;28;20055;-28
2024/01/29 02:52:52;;;;;;;6.65;5.20;;;4.20;99.90;;;;;;5114358;27;20096;-28
2024/01/29 02:55:17;;;;;;;6.40;5.00;;;4.10;99.90;;;;;;5094748;28;20047;-28
2024/01/29 02:57:43;;;;;;;7.85;5.38;;;4.10;99.90;;;;;;5108954;28;20044;-29
2024/01/29 03:00:10;;;;;;;6.70;4.93;;;4.00;99.90;;;;;;5085366;28;20043;-29
2024/01/29 03:02:36;;;;;;;6.32;4.78;;;4.00;99.90;;;;;;5090826;28;20129;-29
2024/01/29 03:05:02;;;;;;;7.78;5.20;;;3.90;99.90;;;;;;5099948;28;20071;-29
2024/01/29 03:07:28;;;;;;;5.63;4.63;;;3.90;99.90;;;;;;5110705;28;20042;-29
2024/01/29 03:09:54;;;;;;;6.60;5.07;;;3.90;99.90;;;;;;5113000;28;20487;-30
2024/01/29 03:12:20;;;;;;;5.90;5.00;;;3.80;99.90;;;;;;5113830;28;20027;-31
2024/01/29 03:14:45;;;;;;;6.20;5.10;;;3.80;99.90;;;;;;5113515;28;20059;-31
2024/01/29 03:17:11;;;;;;;7.75;4.90;;;3.80;99.90;;;;;;5113079;28;20079;-30
2024/01/29 03:19:37;;;;;;;5.82;4.80;;;3.80;99.90;;;;;;5095352;28;20039;-31
2024/01/29 03:22:03;;;;;;;7.38;5.20;;;3.70;99.90;;;;;;5113625;28;20114;-31
2024/01/29 03:24:29;;;;;;;7.60;5.05;;;3.60;99.90;;;;;;5095328;28;20104;-31
2024/01/29 03:26:54;;;;;;;5.68;4.97;;;3.70;99.90;;;;;;5113365;28;20092;-31
2024/01/29 03:29:20;;;;;;;6.72;5.47;;;3.60;99.90;;;;;;5113474;28;20506;-31
2024/01/29 03:31:46;;;;;;;5.97;4.75;;;3.70;99.90;;;;;;5113198;28;20119;-31
2024/01/29 03:34:11;;;;;;;7.53;5.32;;;3.60;99.90;;;;;;5113019;28;20047;-31
2024/01/29 03:36:37;;;;;;;8.52;4.78;;;3.70;99.90;;;;;;5112955;28;20043;-31
2024/01/29 03:39:03;;;;;;;5.63;4.97;;;3.70;99.90;;;;;;5113211;28;20043;-31
2024/01/29 03:41:29;;;;;;;6.82;5.35;;;3.70;99.90;;;;;;5114708;28;20032;-31
2024/01/29 03:43:54;;;;;;;5.70;5.13;;;3.70;99.90;;;;;;5099004;28;20119;-31
2024/01/29 03:46:20;;;;;;;6.30;5.07;;;3.70;99.90;;;;;;5089752;28;20032;-29
2024/01/29 03:48:46;;;;;;;8.90;5.32;;;3.70;99.90;;;;;;5086548;27;20052;-30
2024/01/29 03:51:12;;;;;;;10.88;5.78;;;3.60;99.90;;;;;;5127575;27;20121;-30
2024/01/29 03:53:37;;;;;;;6.05;5.45;;;3.60;99.90;;;;;;5110495;27;20082;-29
2024/01/29 03:56:03;;;;;;;6.10;5.30;;;3.60;99.90;;;;;;5120597;27;20044;-29
2024/01/29 03:58:29;;;;;;;8.32;5.72;;;3.50;99.90;;;;;;5117038;27;20409;-29
2024/01/29 04:00:55;;;;;;;6.97;5.40;;;3.50;99.90;;;;;;5119463;27;20036;-29
2024/01/29 04:03:20;;;;;;;5.65;5.10;;;3.50;99.90;;;;;;5115443;28;20020;-28
2024/01/29 04:05:46;;;;;;;5.68;4.68;;;3.50;99.90;;;;;;5116601;28;20106;-28
2024/01/29 04:08:12;;;;;;;6.32;5.07;;;3.50;99.90;;;;;;5112126;28;20047;-29
2024/01/29 04:10:38;;;;;;;6.18;5.57;;;3.50;99.90;;;;;;5116429;28;20027;-29
2024/01/29 04:13:03;;;;;;;6.05;5.38;;;3.50;99.90;;;;;;5109694;28;20040;-28
2024/01/29 04:15:30;;;;;;;5.95;5.35;;;3.40;99.90;;;;;;5094166;28;20118;-28
2024/01/29 04:17:56;;;;;;;8.43;5.97;;;3.40;99.90;;;;;;5122584;27;20050;-28
2024/01/29 04:20:21;;;;;;;5.53;5.03;;;3.50;99.90;;;;;;5115244;28;20039;-28
2024/01/29 04:22:47;;;;;;;6.57;5.50;;;3.50;99.90;;;;;;5116157;28;20040;-29
2024/01/29 04:25:13;;;;;;;7.38;5.03;;;3.50;99.90;;;;;;5115844;28;20079;-29
2024/01/29 04:27:38;;;;;;;6.93;5.43;;;3.50;99.90;;;;;;5098241;28;20043;-30
2024/01/29 04:30:05;;;;;;;8.95;5.57;;;3.40;99.90;;;;;;5117018;28;20039;-32
2024/01/29 04:32:31;;;;;;;7.88;5.07;;;3.40;99.90;;;;;;5104162;28;20031;-30
2024/01/29 04:34:56;;;;;;;8.70;5.38;;;3.40;99.90;;;;;;5115597;28;20124;-30
2024/01/29 04:37:24;;;;;;;8.13;5.53;;;3.40;99.90;;;;;;5115628;28;20670;-30
2024/01/29 04:39:50;;;;;;;13.88;10.45;;;3.40;99.90;;;;;;5111224;28;20570;-30
2024/01/29 04:42:15;;;;;;;8.07;6.03;;;3.40;99.90;;;;;;5084001;27;20062;-30
2024/01/29 04:44:41;;;;;;;8.93;6.18;;;3.30;99.90;;;;;;5115684;27;20038;-30
2024/01/29 04:47:07;;;;;;;6.40;5.70;;;3.20;99.90;;;;;;5115840;27;20039;-30
2024/01/29 04:49:33;;;;;;;7.03;5.63;;;3.30;99.90;;;;;;5116234;27;20043;-30
2024/01/29 04:51:58;;;;;;;6.45;5.32;;;3.30;99.90;;;;;;5115071;28;20143;-30
2024/01/29 04:54:24;;;;;;;14.25;9.93;;;3.40;99.90;;;;;;5114443;28;20039;-29
2024/01/29 04:56:50;;;;;;;16.10;11.18;;;3.40;99.90;;;;;;5115882;28;20449;-29
2024/01/29 04:59:15;;;;;;;8.00;5.97;;;3.30;99.90;;;;;;5115718;28;20047;-29
2024/01/29 05:01:41;;;;;;;7.78;5.47;;;3.30;99.90;;;;;;5112448;28;20623;-29
2024/01/29 05:04:07;;;;;;;7.40;5.50;;;3.30;99.90;;;;;;5083308;28;20140;-29
2024/01/29 05:06:33;;;;;;;9.73;6.18;;;3.40;99.90;;;;;;5096425;28;20491;-29
2024/01/29 05:09:00;;;;;;;7.45;5.82;;;3.50;99.90;;;;;;5114891;27;20063;-29
2024/01/29 05:11:26;;;;;;;7.60;5.72;;;3.50;99.90;;;;;;5114414;28;20040;-29
2024/01/29 05:13:53;;;;;;;6.93;5.20;;;3.50;99.90;;;;;;5121883;27;20023;-29
2024/01/29 05:16:18;;;;;;;7.38;5.93;;;3.50;99.90;;;;;;5114723;28;20440;-29
2024/01/29 05:18:44;;;;;;;7.57;5.57;;;3.40;99.90;;;;;;5115209;27;20118;-29
2024/01/29 05:21:12;;;;;;;8.55;5.93;;;3.40;99.90;;;;;;5096699;28;20044;-29
2024/01/29 05:23:38;;;;;;;6.63;5.47;;;3.30;99.90;;;;;;5115959;27;20397;-30
2024/01/29 05:26:04;;;;;;;8.60;5.70;;;3.30;99.90;;;;;;5114638;27;20032;-29
2024/01/29 05:28:30;;;;;;;6.68;5.68;;;3.30;99.90;;;;;;5087982;28;20521;-29
2024/01/29 05:30:56;;;;;;;7.20;5.28;;;3.30;99.90;;;;;;5096237;28;20032;-29
2024/01/29 05:33:22;;;;;;;8.40;6.15;;;3.30;99.90;;;;;;5110438;27;20051;-29
2024/01/29 05:35:48;;;;;;;7.25;5.45;;;3.30;99.90;;;;;;5105906;27;20450;-28
2024/01/29 05:38:13;;;;;;;8.75;6.05;;;3.30;99.90;;;;;;5116795;27;20042;-30
2024/01/29 05:40:39;;;;;;;8.23;5.47;;;3.30;99.90;;;;;;5115438;27;20105;-30
2024/01/29 05:43:05;;;;;;;6.72;5.45;;;3.30;99.90;;;;;;5089051;28;20462;-30
2024/01/29 05:45:31;;;;;;;7.00;5.65;;;3.30;99.90;;;;;;5114120;27;20041;-30
2024/01/29 05:47:56;;;;;;;6.38;5.72;;;3.30;99.90;;;;;;5113353;28;20046;-29
2024/01/29 05:50:22;;;;;;;8.07;5.82;;;3.30;99.90;;;;;;5105779;28;20032;-30
2024/01/29 05:52:48;;;;;;;8.98;6.38;;;3.30;99.90;;;;;;5113953;28;20088;-29
2024/01/29 05:55:14;;;;;;;8.25;5.95;;;3.30;99.90;;;;;;5114739;28;20563;-31
2024/01/29 05:57:39;;;;;;;7.05;5.90;;;3.30;99.90;;;;;;5115128;28;20036;-31
2024/01/29 06:00:10;;;;;;;6.80;6.15;;;3.30;99.90;;;;;;5115137;28;20043;-31
2024/01/29 06:02:42;;;;;;;7.18;6.10;;;3.30;99.90;;;;;;5096278;28;20109;-31
2024/01/29 06:05:11;;;;;;;10.80;6.65;;;3.30;99.90;;;;;;5114793;28;20044;-31
2024/01/29 06:07:40;;;;;;;9.48;6.10;;;3.30;99.90;;;;;;5114525;28;20062;-32
2024/01/29 06:10:15;;;;;;;8.35;6.32;;;3.30;99.90;;;;;;5113998;28;20044;-32
2024/01/29 06:12:41;;;;;;;8.65;5.95;;;3.30;99.90;;;;;;5114282;28;20031;-32
2024/01/29 06:15:07;;;;;;;7.85;6.40;;;3.30;99.90;;;;;;5114118;28;20032;-31
2024/01/29 06:17:32;;;;;;;8.05;6.75;;;3.40;99.90;;;;;;5114018;27;20483;-30
2024/01/29 06:19:58;;;;;;;6.50;5.88;;;3.30;99.90;;;;;;5113542;28;20081;-29
2024/01/29 06:22:24;;;;;;;7.28;6.50;;;3.40;99.90;;;;;;5113800;28;20119;-30
2024/01/29 06:24:50;;;;;;;7.72;5.82;;;3.40;99.90;;;;;;5113602;28;20490;-29
2024/01/29 06:27:15;;;;;;;6.50;5.72;;;3.40;99.90;;;;;;5112749;28;20032;-29
2024/01/29 06:29:41;;;;;;;9.30;6.45;;;3.40;99.90;;;;;;5113347;28;20085;-29
2024/01/29 06:32:07;;;;;;;8.02;6.43;;;3.40;99.90;;;;;;5116178;27;20420;-29
2024/01/29 06:34:34;;;;;;;14.43;9.90;;;3.30;99.90;;;;;;5115325;27;20046;-29
2024/01/29 06:37:00;;;;;;;9.05;7.03;;;3.30;99.90;;;;;;5116985;27;20478;-29
2024/01/29 06:39:25;;;;;;;9.55;8.48;;;3.30;99.90;;;;;;5115807;27;20060;-29
2024/01/29 06:41:52;;;;;;;12.27;9.20;;;3.30;99.90;;;;;;5095870;28;20079;-29
2024/01/29 06:44:18;;;;;;;17.92;12.40;;;3.30;99.90;;;;;;5123140;27;20043;-29
2024/01/29 06:46:44;;;;;;;11.18;8.23;;;3.40;99.90;;;;;;5109467;28;20131;-29
2024/01/29 06:49:26;;;;;;;9.82;7.95;;;3.40;99.90;;;;;;5110513;28;20105;-29
2024/01/29 06:51:51;;;;;;;13.93;10.07;;;3.40;99.90;;;;;;5111628;28;20035;-30
2024/01/29 06:54:17;;;;;;;8.27;7.20;;;3.30;99.90;;;;;;5105815;28;20450;-30
2024/01/29 06:56:43;;;;;;;10.52;9.25;;;3.30;99.90;;;;;;5105816;28;20090;-31
2024/01/29 06:59:10;;;;;;;12.65;10.38;;;3.30;99.90;;;;;;5113990;28;20043;-31
2024/01/29 07:01:39;;;;;;;19.38;13.48;;;3.20;99.90;;;;;;5113672;28;20043;-32
2024/01/29 07:04:04;;;;;;;19.58;13.38;;;3.20;99.90;;;;;;5113690;28;20135;-29
2024/01/29 07:06:31;;;;;;;13.43;10.57;;;3.20;99.90;;;;;;5094593;28;20136;-29
2024/01/29 07:08:57;;;;;;;15.15;12.18;;;3.20;99.90;;;;;;5112132;28;20092;-29
2024/01/29 07:11:23;;;;;;;12.00;9.88;;;3.10;99.90;;;;;;5118091;27;20415;-30
2024/01/29 07:13:49;;;;;;;9.25;7.88;;;3.10;99.90;;;;;;5112907;28;20448;-29
2024/01/29 07:16:15;;;;;;;9.63;7.53;;;3.20;99.90;;;;;;5111735;28;20104;-29
2024/01/29 07:18:41;;;;;;;8.02;6.80;;;3.10;99.90;;;;;;5105142;28;20035;-29
2024/01/29 07:21:09;;;;;;;9.07;7.10;;;3.10;99.90;;;;;;5117529;27;20123;-30
2024/01/29 07:23:35;;;;;;;8.23;6.60;;;3.20;99.90;;;;;;5114972;27;20044;-29
2024/01/29 07:26:01;;;;;;;11.13;7.20;;;3.20;99.90;;;;;;5113012;28;20028;-30
2024/01/29 07:28:26;;;;;;;8.30;7.30;;;3.20;99.90;;;;;;5112419;28;20383;-29
2024/01/29 07:30:53;;;;;;;9.27;7.35;;;3.30;99.90;;;;;;5089774;28;20122;-29
2024/01/29 07:33:18;;;;;;;9.55;7.88;;;3.30;99.90;;;;;;5107874;28;20097;-29
2024/01/29 07:35:44;;;;;;;8.35;7.43;;;3.30;99.90;;;;;;5112308;28;20503;-29
2024/01/29 07:38:10;;;;;;;8.20;7.28;;;3.30;99.90;;;;;;5112501;28;20039;-29
2024/01/29 07:40:36;;;;;;;10.85;8.43;;;3.40;99.90;;;;;;5109685;28;20032;-29
2024/01/29 07:43:02;;;;;;;9.00;8.10;;;3.40;99.90;;;;;;5101787;28;20043;-29
2024/01/29 07:45:29;;;;;;;12.50;9.10;;;3.40;99.90;;;;;;5112385;28;20118;-30
2024/01/29 07:47:55;;;;;;;11.40;10.00;;;3.50;99.90;;;;;;5112017;28;20036;-29
2024/01/29 07:50:21;;;;;;;9.15;8.05;;;3.50;99.90;;;;;;5106702;28;20047;-29
2024/01/29 07:52:46;;;;;;;8.90;7.97;;;3.50;99.90;;;;;;5113995;28;20097;-29
2024/01/29 07:55:12;;;;;;;10.60;8.85;;;3.50;99.90;;;;;;5113320;28;20031;-29
2024/01/29 07:57:38;;;;;;;9.70;8.60;;;3.50;99.90;;;;;;5093562;28;20039;-29
2024/01/29 08:00:04;;;;;;;8.38;7.45;;;3.50;99.90;;;;;;5097657;28;20052;-29
2024/01/29 08:02:30;;;;;;;11.23;9.27;;;3.60;99.90;;;;;;5092468;28;20571;-30
2024/01/29 08:04:56;;;;;;;10.55;8.75;;;3.60;99.90;;;;;;5108914;28;20056;-30
2024/01/29 08:07:22;;;;;;;11.82;8.88;;;3.70;99.90;;;;;;5115115;28;20469;-30
2024/01/29 08:09:48;;;;;;;11.23;9.05;;;3.70;99.90;;;;;;5108776;28;20075;-30
2024/01/29 08:12:14;;;;;;;8.93;8.02;;;3.80;99.90;;;;;;5104204;28;20448;-29
2024/01/29 08:14:39;;;;;;;10.00;8.07;;;3.90;99.90;;;;;;5111931;28;20051;-29
2024/01/29 08:17:05;;;;;;;9.57;7.50;;;3.90;99.90;;;;;;5111786;28;20118;-29
2024/01/29 08:19:31;;;;;;;12.07;8.02;;;4.00;99.90;;;;;;5112197;28;20126;-30
2024/01/29 08:21:57;;;;;;;9.35;7.82;;;4.00;99.90;;;;;;5111772;28;20035;-29
2024/01/29 08:24:23;;;;;;;9.50;8.48;;;4.10;99.90;;;;;;5093620;28;20486;-30
2024/01/29 08:26:49;;;;;;;12.18;9.32;;;4.20;99.90;;;;;;5111511;28;20463;-30
2024/01/29 08:29:15;;;;;;;10.55;8.82;;;4.30;99.90;;;;;;5114747;28;20036;-30
2024/01/29 08:31:40;;;;;;;9.65;7.53;;;4.30;99.90;;;;;;5115046;28;20413;-30
2024/01/29 08:34:06;;;;;;;10.82;8.15;;;4.40;99.90;;;;;;5115572;27;20050;-29
2024/01/29 08:36:33;;;;;;;8.05;7.15;;;4.40;99.90;;;;;;5110581;27;20043;-30
2024/01/29 08:38:59;;;;;;;11.05;7.35;;;4.50;99.90;;;;;;5119486;27;20043;-30
2024/01/29 08:41:25;;;;;;;8.55;7.10;;;4.70;99.90;;;;;;5101743;27;20067;-30
2024/01/29 08:43:50;;;;;;;7.88;7.07;;;5.00;99.90;;;;;;5117181;27;20502;-30
2024/01/29 08:46:16;;;;;;;9.20;7.50;;;5.40;99.90;;;;;;5101780;28;20058;-30
2024/01/29 08:48:42;;;;;;;7.32;6.50;;;5.90;99.90;;;;;;5115201;28;20379;-30
2024/01/29 08:51:08;;;;;;;7.72;6.97;;;6.20;99.90;;;;;;5115276;28;20071;-30
2024/01/29 08:53:34;;;;;;;7.32;6.63;;;6.40;99.90;;;;;;5115250;28;20067;-30
2024/01/29 08:56:00;;;;;;;8.20;6.70;;;6.60;99.90;;;;;;5115644;27;20036;-30
2024/01/29 08:58:26;;;;;;;7.88;6.43;;;6.80;99.90;;;;;;5115377;28;20031;-30
2024/01/29 09:00:54;;;;;;;7.68;6.90;;;7.00;99.90;;;;;;5115896;28;20036;-29
2024/01/29 09:03:20;;;;;;;7.43;6.55;;;7.20;99.90;;;;;;5103393;27;20035;-30
2024/01/29 09:05:48;;;;;;;8.25;7.07;;;7.30;99.90;;;;;;5107027;28;20081;-30
2024/01/29 09:08:14;;;;;;;7.88;6.97;;;7.30;99.90;;;;;;5096576;28;20047;-30
2024/01/29 09:10:40;;;;;;;6.90;6.20;;;7.40;99.90;;;;;;5097469;28;20039;-30
2024/01/29 09:13:06;;;;;;;8.25;6.50;;;7.30;99.90;;;;;;5108462;28;20552;-30
2024/01/29 09:15:32;;;;;;;8.05;7.13;;;7.20;99.90;;;;;;5114696;28;20102;-31
2024/01/29 09:17:58;;;;;;;9.13;6.65;;;7.10;99.90;;;;;;5095700;28;20055;-31
2024/01/29 09:20:27;;;;;;;10.25;7.20;;;7.00;99.90;;;;;;5114444;28;20035;-31
2024/01/29 09:22:53;;;;;;;10.35;7.47;;;6.90;99.90;;;;;;5109822;28;20044;-31
2024/01/29 09:25:19;;;;;;;11.02;7.15;;;6.80;99.90;;;;;;5111333;28;20035;-31
2024/01/29 09:27:45;;;;;;;9.23;7.00;;;6.70;99.90;;;;;;5114301;28;20031;-31
2024/01/29 09:30:11;;;;;;;9.60;7.05;;;6.80;99.90;;;;;;5100124;28;20028;-31
2024/01/29 09:32:36;;;;;;;10.18;7.65;;;7.00;99.90;;;;;;5111304;28;20040;-31
2024/01/29 09:35:02;;;;;;;9.00;7.25;;;7.50;99.90;;;;;;5113829;28;20460;-31
2024/01/29 09:37:28;;;;;;;13.82;7.75;;;8.10;99.90;;;;;;5118299;27;20051;-31
2024/01/29 09:39:54;;;;;;;11.70;7.15;;;8.60;99.90;;;;;;5113549;28;20102;-31
2024/01/29 09:42:24;;;;;;;8.95;7.13;;;9.00;99.90;;;;;;5105247;27;20114;-31
2024/01/29 09:44:53;;;;;;;9.13;7.40;;;9.30;99.90;;;;;;5120239;27;20039;-31
2024/01/29 09:47:20;;;;;;;7.80;6.93;;;9.50;99.90;;;;;;5095421;28;20050;-31
2024/01/29 09:49:47;;;;;;;7.95;7.10;;;9.90;99.90;;;;;;5095560;28;20036;-31
2024/01/29 09:52:13;;;;;;;8.68;7.25;;;10.20;99.90;;;;;;5121397;27;20039;-31
2024/01/29 09:54:40;;;;;;;8.95;6.95;;;10.70;99.90;;;;;;5092954;28;20047;-31
2024/01/29 09:57:11;;;;;;;7.63;6.90;;;11.10;99.90;;;;;;5113966;27;20044;-31
2024/01/29 09:59:37;;;;;;;12.45;6.82;;;11.70;99.90;;;;;;5098916;27;20051;-31
2024/01/29 10:02:03;;;;;;;7.85;6.88;;;11.80;99.90;;;;;;5119502;27;20044;-32
2024/01/29 10:04:29;;;;;;;9.85;8.23;;;12.10;99.90;;;;;;5107687;27;20394;-32
2024/01/29 10:06:55;;;;;;;10.20;7.13;;;12.20;99.90;;;;;;5120054;27;20042;-32
2024/01/29 10:09:21;;;;;;;7.40;6.60;;;12.30;99.90;;;;;;5116577;27;20093;-32
2024/01/29 10:11:49;;;;;;;8.70;7.10;;;12.30;99.90;;;;;;5119013;27;20085;-32
2024/01/29 10:14:16;;;;;;;10.05;7.80;;;12.40;99.90;;;;;;5095512;28;20092;-34
2024/01/29 10:16:42;;;;;;;8.60;7.30;;;12.30;99.90;;;;;;5114272;28;20426;-33
2024/01/29 10:19:09;;;;;;;8.45;7.53;;;12.50;99.90;;;;;;5114428;28;20067;-33
2024/01/29 10:21:39;;;;;;;9.10;7.97;;;12.70;99.90;;;;;;5114161;28;20040;-33
2024/01/29 10:24:11;;;;;;;11.90;8.07;;;12.90;99.90;;;;;;5095926;28;20047;-33
2024/01/29 10:26:37;;;;;;;8.07;7.28;;;13.00;99.90;;;;;;5114018;28;20457;-33
2024/01/29 10:29:04;;;;;;;8.45;7.60;;;13.20;99.90;;;;;;5120597;27;20123;-33
2024/01/29 10:31:31;;;;;;;8.07;7.22;;;13.30;99.90;;;;;;5116925;27;20040;-33
2024/01/29 10:33:57;;;;;;;8.60;7.35;;;13.50;99.90;;;;;;5113162;28;20032;-30
2024/01/29 10:36:24;;;;;;;8.35;7.50;;;13.40;99.90;;;;;;5114909;27;20043;-31
2024/01/29 10:38:51;;;;;;;8.45;7.13;;;13.60;99.90;;;;;;5113128;28;20051;-31
2024/01/29 10:41:20;;;;;;;8.82;7.30;;;13.50;99.90;;;;;;5105965;28;20093;-31
2024/01/29 10:43:53;;;;;;;8.70;7.38;;;13.40;99.90;;;;;;5085339;27;20055;-31
2024/01/29 10:46:23;;;;;;;8.38;7.45;;;13.30;99.90;;;;;;5116433;27;20039;-31
2024/01/29 10:48:51;;;;;;;10.40;8.27;;;13.50;99.90;;;;;;5107757;28;20035;-31
2024/01/29 10:51:18;;;;;;;9.60;8.63;;;13.70;99.90;;;;;;5103134;28;20119;-31
2024/01/29 10:53:47;;;;;;;9.07;7.80;;;13.80;99.90;;;;;;5096408;28;20046;-31
2024/01/29 10:56:13;;;;;;;8.48;7.68;;;13.60;99.90;;;;;;5094213;27;20034;-31
2024/01/29 10:58:39;;;;;;;10.15;8.30;;;13.30;99.90;;;;;;5113818;27;20056;-31
2024/01/29 11:01:06;;;;;;;9.52;8.63;;;13.00;99.90;;;;;;5111651;27;20097;-31
2024/01/29 11:03:34;;;;;;;11.23;8.60;;;13.20;99.90;;;;;;5116138;27;20028;-31
2024/01/29 11:06:11;;;;;;;9.20;8.25;;;13.60;99.90;;;;;;5112544;28;20036;-31
2024/01/29 11:08:39;;;;;;;10.73;7.97;;;14.00;99.90;;;;;;5115713;27;20497;-31
2024/01/29 11:11:07;;;;;;;8.93;8.07;;;14.60;99.90;;;;;;5112416;28;20047;-31
2024/01/29 11:13:33;;;;;;;9.68;8.50;;;15.10;99.90;;;;;;5093497;28;20429;-31
2024/01/29 11:15:59;;;;;;;10.60;8.52;;;15.50;99.90;;;;;;5112390;28;20031;-31
2024/01/29 11:18:25;;;;;;;11.07;8.48;;;15.80;99.00;;;;;;5113935;28;20509;-31
2024/01/29 11:20:51;;;;;;;9.63;8.77;;;16.20;96.20;;;;;;5112266;28;20055;-31
2024/01/29 11:23:21;;;;;;;10.00;8.00;;;16.70;91.70;;;;;;5118561;27;20139;-31
2024/01/29 11:25:49;;;;;;;10.80;8.82;;;16.80;84.30;;;;;;5107177;28;20040;-31
2024/01/29 11:28:15;;;;;;;9.93;8.90;;;16.90;81.40;;;;;;5091915;28;20043;-31
2024/01/29 11:30:48;;;;;;;9.32;8.40;;;16.60;80.70;;;;;;5111841;28;20050;-31
2024/01/29 11:33:16;;;;;;;9.00;8.20;;;16.10;81.60;;;;;;5106960;28;20044;-31
2024/01/29 11:35:43;;;;;;;10.70;9.50;;;15.70;85.20;;;;;;5111625;28;20079;-31
2024/01/29 11:38:13;;;;;;;10.23;9.13;;;15.50;88.80;;;;;;5106328;27;20052;-31
2024/01/29 11:40:41;;;;;;;11.02;9.90;;;15.60;91.50;;;;;;5109335;28;20031;-31
2024/01/29 11:43:21;;;;;;;11.25;9.50;;;15.70;93.90;;;;;;5102069;28;20137;-31
2024/01/29 11:45:52;;;;;;;10.60;9.00;;;15.50;94.10;;;;;;5085479;28;20081;-31
2024/01/29 11:48:20;;;;;;;10.35;9.35;;;15.70;92.70;;;;;;5103422;28;20051;-31
2024/01/29 11:50:49;;;;;;;10.55;8.65;;;15.90;95.30;;;;;;5117677;28;20388;-31
2024/01/29 11:53:19;;;;;;;13.35;11.05;;;16.10;91.20;;;;;;5118084;28;20100;-32
2024/01/29 11:55:47;;;;;;;12.20;10.93;;;16.10;87.80;;;;;;5111975;28;20494;-32
2024/01/29 11:58:23;;;;;;;12.15;10.20;;;16.20;90.10;;;;;;5111880;28;20047;-31
2024/01/29 12:00:50;;;;;;;11.75;10.55;;;16.40;90.00;;;;;;5085212;28;20040;-32
2024/01/29 12:03:22;;;;;;;12.82;9.15;;;16.50;87.30;;;;;;5112396;28;20405;-31
2024/01/29 12:05:51;;;;;;;10.10;9.10;;;16.50;85.90;;;;;;5112723;28;20031;-32
2024/01/29 12:08:19;;;;;;;11.32;10.07;;;16.00;86.40;;;;;;5114901;28;20111;-32
2024/01/29 12:10:45;;;;;;;10.75;9.65;;;15.60;89.30;;;;;;5097182;28;20099;-31
2024/01/29 12:13:12;;;;;;;11.68;10.15;;;15.00;93.90;;;;;;5115038;28;20080;-32
2024/01/29 12:15:39;;;;;;;13.38;11.98;;;14.50;99.90;;;;;;5103826;28;20092;-31
2024/01/29 12:18:09;;;;;;;13.68;12.30;;;13.70;99.90;;;;;;5115362;28;20043;-31
2024/01/29 12:20:36;;;;;;;16.77;13.85;;;13.20;99.90;;;;;;5101247;28;20036;-32
2024/01/29 12:23:03;;;;;;;14.27;10.85;;;12.70;99.90;;;;;;5109637;28;20040;-32
2024/01/29 12:25:29;;;;;;;15.13;11.82;;;12.40;99.90;;;;;;5114053;28;20046;-31
2024/01/29 12:28:09;;;;;;;12.43;9.98;;;12.10;99.90;;;;;;5111021;27;20031;-31
2024/01/29 12:30:38;;;;;;;13.07;11.63;;;11.90;99.90;;;;;;5112157;28;20523;-31
2024/01/29 12:33:07;;;;;;;12.45;11.05;;;11.70;99.90;;;;;;5117120;27;20044;-31
2024/01/29 12:35:34;;;;;;;16.90;14.98;;;11.60;99.90;;;;;;5119148;27;20839;-31
2024/01/29 12:38:12;;;;;;;17.02;14.60;;;11.50;99.90;;;;;;5115576;28;20062;-31
2024/01/29 12:40:41;;;;;;;15.90;14.20;;;11.40;99.90;;;;;;5115140;27;20062;-31
2024/01/29 12:43:09;;;;;;;21.02;17.58;;;11.40;99.90;;;;;;5102455;28;20040;-31
2024/01/29 12:45:36;;;;;;;12.60;11.38;;;11.30;99.90;;;;;;5118205;27;20474;-31
2024/01/29 12:48:09;;;;;;;11.50;10.32;;;11.20;99.90;;;;;;5115228;27;20409;-31